createdAt,value
2022-07-28T00:00:51.928Z,6.60
2022-07-28T00:03:18.676Z,5.95
2022-07-28T00:05:45.484Z,6.53
2022-07-28T00:08:12.101Z,6.20
2022-07-28T00:10:38.723Z,6.47
2022-07-28T00:13:06.819Z,6.07
2022-07-28T00:15:35.129Z,5.63
2022-07-28T00:18:01.768Z,5.93
2022-07-28T00:20:28.561Z,5.95
2022-07-28T00:22:55.237Z,5.60
2022-07-28T00:25:21.994Z,5.65
2022-07-28T00:27:48.778Z,6.47
2022-07-28T00:30:15.440Z,6.07
2022-07-28T00:32:43.502Z,6.05
2022-07-28T00:35:10.274Z,6.40
2022-07-28T00:37:39.735Z,5.97
2022-07-28T00:40:08.314Z,5.40
2022-07-28T00:42:34.966Z,5.20
2022-07-28T00:45:01.642Z,5.68
2022-07-28T00:47:28.275Z,5.88
2022-07-28T00:50:02.299Z,4.97
2022-07-28T00:52:29.057Z,4.63
2022-07-28T00:54:57.814Z,5.30
2022-07-28T00:57:24.453Z,4.72
2022-07-28T00:59:51.073Z,4.85
2022-07-28T01:02:17.951Z,4.75
2022-07-28T01:04:44.696Z,5.00
2022-07-28T01:07:23.416Z,4.75
2022-07-28T01:10:03.282Z,4.85
2022-07-28T01:12:45.883Z,4.22
2022-07-28T01:15:22.440Z,4.88
2022-07-28T01:17:57.877Z,4.85
2022-07-28T01:20:31.884Z,5.10
2022-07-28T01:23:24.112Z,4.57
2022-07-28T01:26:12.606Z,4.25
2022-07-28T01:28:59.252Z,4.55
2022-07-28T01:31:34.001Z,4.75
2022-07-28T01:34:06.907Z,4.93
2022-07-28T01:36:39.819Z,4.18
2022-07-28T01:39:06.692Z,4.55
2022-07-28T01:41:36.227Z,4.93
2022-07-28T01:44:07.153Z,4.70
2022-07-28T01:46:37.336Z,4.82
2022-07-28T01:49:04.709Z,4.90
2022-07-28T01:51:33.362Z,4.43
2022-07-28T01:54:01.861Z,4.30
2022-07-28T01:56:31.019Z,4.63
2022-07-28T01:59:00.444Z,4.35
2022-07-28T02:01:28.444Z,4.60
2022-07-28T02:03:59.002Z,4.40
2022-07-28T02:06:26.726Z,4.60
2022-07-28T02:08:56.164Z,4.55
2022-07-28T02:11:24.992Z,4.20
2022-07-28T02:13:53.524Z,3.97
2022-07-28T02:16:23.588Z,3.95
2022-07-28T02:18:53.791Z,4.13
2022-07-28T02:21:24.609Z,4.47
2022-07-28T02:23:53.397Z,4.15
2022-07-28T02:26:32.102Z,4.13
2022-07-28T02:29:01.446Z,3.95
2022-07-28T02:34:02.032Z,3.83
2022-07-28T02:36:34.737Z,3.60
2022-07-28T02:39:04.489Z,3.90
2022-07-28T02:41:36.530Z,3.53
2022-07-28T02:44:07.643Z,3.72
2022-07-28T02:46:41.188Z,4.18
2022-07-28T02:49:13.882Z,3.92
2022-07-28T02:51:43.533Z,3.75
2022-07-28T02:54:12.796Z,4.22
2022-07-28T02:56:40.851Z,4.20
2022-07-28T02:59:09.169Z,3.85
2022-07-28T03:01:36.834Z,3.55
2022-07-28T03:04:03.728Z,3.90
2022-07-28T03:06:30.631Z,3.88
2022-07-28T03:08:58.716Z,3.95
2022-07-28T03:11:25.702Z,4.10
2022-07-28T03:13:52.410Z,3.95
2022-07-28T03:16:19.264Z,4.18
2022-07-28T03:18:45.989Z,4.05
2022-07-28T03:21:12.720Z,4.15
2022-07-28T03:23:42.231Z,3.97
2022-07-28T03:26:15.386Z,4.03
2022-07-28T03:28:43.714Z,4.22
2022-07-28T03:31:11.956Z,4.30
2022-07-28T03:33:39.230Z,4.25
2022-07-28T03:36:11.743Z,4.30
2022-07-28T03:38:43.754Z,4.28
2022-07-28T03:41:14.870Z,3.97
2022-07-28T03:43:43.040Z,4.10
2022-07-28T03:46:13.177Z,4.10
2022-07-28T03:48:40.298Z,4.07
2022-07-28T03:51:07.017Z,3.83
2022-07-28T03:53:33.868Z,4.15
2022-07-28T03:56:00.518Z,4.25
2022-07-28T03:58:29.225Z,4.00
2022-07-28T04:00:56.893Z,4.28
2022-07-28T04:03:43.018Z,4.10
2022-07-28T04:06:10.383Z,3.88
2022-07-28T04:08:37.142Z,3.63
2022-07-28T04:11:03.776Z,4.00
2022-07-28T04:13:31.783Z,3.60
2022-07-28T04:15:58.716Z,4.00
2022-07-28T04:18:25.364Z,3.97
2022-07-28T04:20:51.998Z,3.83
2022-07-28T04:23:18.686Z,3.72
2022-07-28T04:25:45.394Z,4.07
2022-07-28T04:28:12.109Z,3.88
2022-07-28T04:30:44.001Z,4.03
2022-07-28T04:33:11.171Z,3.63
2022-07-28T04:35:37.844Z,3.63
2022-07-28T04:38:04.710Z,3.97
2022-07-28T04:40:31.440Z,3.78
2022-07-28T04:42:58.093Z,3.83
2022-07-28T04:45:24.776Z,3.67
2022-07-28T04:47:52.844Z,4.07
2022-07-28T04:50:19.725Z,3.80
2022-07-28T04:52:46.383Z,4.60
2022-07-28T04:55:13.060Z,4.55
2022-07-28T04:57:39.709Z,3.50
2022-07-28T05:00:08.135Z,4.03
2022-07-28T05:02:35.161Z,3.70
2022-07-28T05:05:03.617Z,3.70
2022-07-28T05:07:30.280Z,4.20
2022-07-28T05:09:57.001Z,4.35
2022-07-28T05:12:23.654Z,3.92
2022-07-28T05:14:50.290Z,3.72
2022-07-28T05:17:16.885Z,3.70
2022-07-28T05:19:43.561Z,4.28
2022-07-28T05:22:11.644Z,3.60
2022-07-28T05:24:38.279Z,3.88
2022-07-28T05:27:05.080Z,3.58
2022-07-28T05:29:35.122Z,3.28
2022-07-28T05:32:17.477Z,3.95
2022-07-28T05:34:44.503Z,3.97
2022-07-28T05:37:12.621Z,3.67
2022-07-28T05:39:39.363Z,4.18
2022-07-28T05:42:09.238Z,4.10
2022-07-28T05:44:38.258Z,3.60
2022-07-28T05:47:05.444Z,3.50
2022-07-28T05:49:32.087Z,3.95
2022-07-28T05:51:58.930Z,3.75
2022-07-28T05:54:27.039Z,4.05
2022-07-28T05:56:53.699Z,3.75
2022-07-28T05:59:20.425Z,3.70
2022-07-28T06:01:47.200Z,4.35
2022-07-28T06:04:27.227Z,3.50
2022-07-28T06:06:55.385Z,4.03
2022-07-28T06:09:22.095Z,3.58
2022-07-28T06:11:50.191Z,3.50
2022-07-28T06:14:17.429Z,3.22
2022-07-28T06:16:44.458Z,3.33
2022-07-28T06:19:11.125Z,3.53
2022-07-28T06:21:37.773Z,3.35
2022-07-28T06:24:05.245Z,3.20
2022-07-28T06:26:31.991Z,3.25
2022-07-28T06:29:00.071Z,3.20
2022-07-28T06:31:26.758Z,3.20
2022-07-28T06:33:53.433Z,3.20
2022-07-28T06:36:20.140Z,3.42
2022-07-28T06:38:46.776Z,3.30
2022-07-28T06:41:13.444Z,3.75
2022-07-28T06:43:40.102Z,3.25
2022-07-28T06:46:08.251Z,3.53
2022-07-28T06:48:34.935Z,3.50
2022-07-28T06:51:01.643Z,3.55
2022-07-28T06:53:28.328Z,3.63
2022-07-28T06:56:00.841Z,3.30
2022-07-28T06:58:27.574Z,3.80
2022-07-28T07:00:54.294Z,3.17
2022-07-28T07:03:22.402Z,3.13
2022-07-28T07:05:52.490Z,3.40
2022-07-28T07:08:19.923Z,3.50
2022-07-28T07:10:46.730Z,3.17
2022-07-28T07:13:14.138Z,3.90
2022-07-28T07:15:40.959Z,3.80
2022-07-28T07:18:08.020Z,4.78
2022-07-28T07:20:36.233Z,3.95
2022-07-28T07:23:02.901Z,3.78
2022-07-28T07:25:30.758Z,3.80
2022-07-28T07:27:58.592Z,3.13
2022-07-28T07:30:25.540Z,3.05
2022-07-28T07:32:52.444Z,3.78
2022-07-28T07:35:19.268Z,3.38
2022-07-28T07:37:47.327Z,2.75
2022-07-28T07:40:14.205Z,3.13
2022-07-28T07:42:41.026Z,3.50
2022-07-28T07:45:09.624Z,3.13
2022-07-28T07:47:36.387Z,3.35
2022-07-28T07:50:04.606Z,3.60
2022-07-28T07:52:31.664Z,3.50
2022-07-28T07:54:59.852Z,3.60
2022-07-28T07:57:27.029Z,2.90
2022-07-28T08:00:01.617Z,3.40
2022-07-28T08:02:28.583Z,3.33
2022-07-28T08:04:57.234Z,3.60
2022-07-28T08:07:23.892Z,3.72
2022-07-28T08:09:50.587Z,3.70
2022-07-28T08:12:25.004Z,3.83
2022-07-28T08:14:52.397Z,4.57
2022-07-28T08:17:23.593Z,3.95
2022-07-28T08:19:52.616Z,3.13
2022-07-28T08:22:19.394Z,3.67
2022-07-28T08:24:46.170Z,3.40
2022-07-28T08:27:13.318Z,4.03
2022-07-28T08:29:41.554Z,3.67
2022-07-28T08:32:08.371Z,4.10
2022-07-28T08:34:35.583Z,3.90
2022-07-28T08:37:04.451Z,3.97
2022-07-28T08:39:34.065Z,3.50
2022-07-28T08:42:05.469Z,4.00
2022-07-28T08:44:41.383Z,3.55
2022-07-28T08:47:10.947Z,3.67
2022-07-28T08:49:40.648Z,3.35
2022-07-28T08:52:12.156Z,3.80
2022-07-28T08:54:43.442Z,3.70
2022-07-28T08:57:18.449Z,3.63
2022-07-28T08:59:46.618Z,3.53
2022-07-28T09:02:15.332Z,2.92
2022-07-28T09:04:42.623Z,3.42
2022-07-28T09:07:11.306Z,3.83
2022-07-28T09:09:39.599Z,2.50
2022-07-28T09:12:06.945Z,3.70
2022-07-28T09:14:34.659Z,3.53
2022-07-28T09:17:05.319Z,3.47
2022-07-28T09:19:35.728Z,3.63
2022-07-28T09:22:03.187Z,3.20
2022-07-28T09:24:34.904Z,3.25
2022-07-28T09:27:04.324Z,3.50
2022-07-28T09:29:31.157Z,3.00
2022-07-28T09:31:59.674Z,3.20
2022-07-28T09:34:27.025Z,3.30
2022-07-28T09:36:55.446Z,3.28
2022-07-28T09:39:38.405Z,3.35
2022-07-28T09:42:05.941Z,3.42
2022-07-28T09:44:35.323Z,3.60
2022-07-28T09:47:21.859Z,3.58
2022-07-28T09:49:50.850Z,3.10
2022-07-28T09:52:30.775Z,2.88
2022-07-28T09:55:02.992Z,3.17
2022-07-28T09:57:31.248Z,3.15
2022-07-28T10:00:00.623Z,3.25
2022-07-28T10:02:30.955Z,3.05
2022-07-28T10:04:58.702Z,3.35
2022-07-28T10:07:26.133Z,2.80
2022-07-28T10:10:00.278Z,3.00
2022-07-28T10:12:28.771Z,2.90
2022-07-28T10:14:57.083Z,3.53
2022-07-28T10:17:29.608Z,3.43
2022-07-28T10:19:57.712Z,3.30
2022-07-28T10:22:28.154Z,3.20
2022-07-28T10:24:57.937Z,3.40
2022-07-28T10:27:27.748Z,3.10
2022-07-28T10:29:58.693Z,3.28
2022-07-28T10:32:26.244Z,3.10
2022-07-28T10:35:00.524Z,3.45
2022-07-28T10:37:28.595Z,3.05
2022-07-28T10:40:10.263Z,3.40
2022-07-28T10:42:40.559Z,3.20
2022-07-28T10:45:09.543Z,3.30
2022-07-28T10:50:18.249Z,3.47
2022-07-28T10:52:48.555Z,3.00
2022-07-28T10:55:22.825Z,3.17
2022-07-28T10:58:02.071Z,3.42
2022-07-28T11:00:55.356Z,3.00
2022-07-28T11:03:37.537Z,3.47
2022-07-28T11:06:26.190Z,3.33
2022-07-28T11:08:53.505Z,3.45
2022-07-28T11:11:44.913Z,3.40
2022-07-28T11:14:37.377Z,3.28
2022-07-28T11:17:17.228Z,3.13
2022-07-28T11:22:40.916Z,3.22
2022-07-28T11:25:19.043Z,3.17
2022-07-28T11:28:02.419Z,3.28
2022-07-28T11:30:55.551Z,3.22
2022-07-28T11:33:24.508Z,3.55
2022-07-28T11:35:56.894Z,3.10
2022-07-28T11:38:23.769Z,3.10
2022-07-28T11:40:52.151Z,3.75
2022-07-28T11:43:37.832Z,3.38
2022-07-28T11:46:35.012Z,3.70
2022-07-28T11:49:24.504Z,3.40
2022-07-28T11:52:17.625Z,2.90
2022-07-28T11:54:54.881Z,3.15
2022-07-28T11:58:04.822Z,3.05
2022-07-28T12:00:32.751Z,3.10
2022-07-28T12:03:01.053Z,3.03
2022-07-28T12:05:28.087Z,3.30
2022-07-28T12:08:01.364Z,3.28
2022-07-28T12:13:27.011Z,3.25
2022-07-28T12:15:55.942Z,2.97
2022-07-28T12:20:52.019Z,1.55
2022-07-28T12:23:44.111Z,2.65
2022-07-28T12:26:29.065Z,2.60
2022-07-28T12:28:58.853Z,2.70
2022-07-28T12:31:25.855Z,2.67
2022-07-28T12:33:54.371Z,2.70
2022-07-28T12:36:22.483Z,2.63
2022-07-28T12:38:49.642Z,2.60
2022-07-28T12:41:16.533Z,2.97
2022-07-28T12:43:49.903Z,2.85
2022-07-28T12:46:21.373Z,2.55
2022-07-28T12:48:50.731Z,2.67
2022-07-28T12:51:41.145Z,2.63
2022-07-28T12:54:09.700Z,2.38
2022-07-28T12:56:45.026Z,2.50
2022-07-28T12:59:12.242Z,2.50
2022-07-28T13:01:49.890Z,2.45
2022-07-28T13:04:18.356Z,2.40
2022-07-28T13:06:55.902Z,2.13
2022-07-28T13:09:35.395Z,2.58
2022-07-28T13:12:25.440Z,2.67
2022-07-28T13:15:01.653Z,2.30
2022-07-28T13:17:47.747Z,2.42
2022-07-28T13:20:15.524Z,2.38
2022-07-28T13:22:45.267Z,2.53
2022-07-28T13:25:19.946Z,2.40
2022-07-28T13:27:50.819Z,2.40
2022-07-28T13:30:28.085Z,2.22
2022-07-28T13:33:03.076Z,2.92
2022-07-28T13:35:30.627Z,2.25
2022-07-28T13:37:58.681Z,2.70
2022-07-28T13:40:25.372Z,2.40
2022-07-28T13:42:52.982Z,2.47
2022-07-28T13:45:23.870Z,2.30
2022-07-28T13:47:52.224Z,2.10
2022-07-28T13:50:20.170Z,2.20
2022-07-28T13:52:46.994Z,2.20
2022-07-28T13:55:24.411Z,2.60
2022-07-28T13:57:53.829Z,2.25
2022-07-28T14:00:23.412Z,2.05
2022-07-28T14:02:51.205Z,2.40
2022-07-28T14:05:18.132Z,1.95
2022-07-28T14:07:48.240Z,2.10
2022-07-28T14:10:15.849Z,2.22
2022-07-28T14:12:46.100Z,2.20
2022-07-28T14:15:13.665Z,2.60
2022-07-28T14:17:43.816Z,2.13
2022-07-28T14:20:13.958Z,2.20
2022-07-28T14:25:07.898Z,2.25
2022-07-28T14:27:34.637Z,2.33
2022-07-28T14:30:03.664Z,2.00
2022-07-28T14:32:30.742Z,2.15
2022-07-28T14:34:57.410Z,2.13
2022-07-28T14:37:25.031Z,2.47
2022-07-28T14:39:51.735Z,2.33
2022-07-28T14:42:18.544Z,2.00
2022-07-28T14:44:45.214Z,1.48
2022-07-28T14:47:13.334Z,1.50
2022-07-28T14:49:57.100Z,2.00
2022-07-28T14:52:25.412Z,2.10
2022-07-28T14:54:52.147Z,1.95
2022-07-28T14:57:18.885Z,2.30
2022-07-28T14:59:52.412Z,2.17
2022-07-28T15:02:30.999Z,2.50
2022-07-28T15:07:24.377Z,2.10
2022-07-28T15:09:53.351Z,2.30
2022-07-28T15:12:20.095Z,2.10
2022-07-28T15:14:46.778Z,2.17
2022-07-28T15:17:20.757Z,2.10
2022-07-28T15:19:47.919Z,2.28
2022-07-28T15:22:14.527Z,1.65
2022-07-28T15:24:41.271Z,1.60
2022-07-28T15:27:12.456Z,1.98
2022-07-28T15:29:39.253Z,2.35
2022-07-28T15:32:06.793Z,1.90
2022-07-28T15:34:38.755Z,2.15
2022-07-28T15:37:08.570Z,1.80
2022-07-28T15:39:43.236Z,1.98
2022-07-28T15:42:11.865Z,2.20
2022-07-28T15:44:38.937Z,2.15
2022-07-28T15:47:06.090Z,2.22
2022-07-28T15:49:32.986Z,1.80
2022-07-28T15:52:01.252Z,1.83
2022-07-28T15:54:34.137Z,2.20
2022-07-28T15:57:00.935Z,1.98
2022-07-28T15:59:49.544Z,2.25
2022-07-28T16:02:17.570Z,2.00
2022-07-28T16:04:53.208Z,2.10
2022-07-28T16:07:22.672Z,2.00
2022-07-28T16:09:50.355Z,2.03
2022-07-28T16:12:17.532Z,1.85
2022-07-28T16:14:44.366Z,2.22
2022-07-28T16:17:11.525Z,2.17
2022-07-28T16:19:49.117Z,1.85
2022-07-28T16:22:26.584Z,2.08
2022-07-28T16:24:53.370Z,1.98
2022-07-28T16:27:20.169Z,1.95
2022-07-28T16:29:47.030Z,1.88
2022-07-28T16:32:14.140Z,2.08
2022-07-28T16:34:47.355Z,2.20
2022-07-28T16:37:21.598Z,2.50
2022-07-28T16:39:50.206Z,2.42
2022-07-28T16:42:17.108Z,2.40
2022-07-28T16:44:43.950Z,2.00
2022-07-28T16:47:17.005Z,1.80
2022-07-28T16:49:46.300Z,2.00
2022-07-28T16:52:13.486Z,1.83
2022-07-28T16:54:40.210Z,1.90
2022-07-28T16:57:08.345Z,1.83
2022-07-28T16:59:45.553Z,2.15
2022-07-28T17:02:16.147Z,2.15
2022-07-28T17:04:42.890Z,1.95
2022-07-28T17:07:09.753Z,2.00
2022-07-28T17:09:36.506Z,2.35
2022-07-28T17:12:03.440Z,2.20
2022-07-28T17:14:32.777Z,2.40
2022-07-28T17:17:28.037Z,1.98
2022-07-28T17:19:54.845Z,2.17
2022-07-28T17:22:21.621Z,2.10
2022-07-28T17:24:48.848Z,2.35
2022-07-28T17:30:08.071Z,2.17
2022-07-28T17:32:34.777Z,2.50
2022-07-28T17:35:01.546Z,2.50
2022-07-28T17:37:28.207Z,2.50
2022-07-28T17:39:55.066Z,2.30
2022-07-28T17:42:21.998Z,2.03
2022-07-28T17:44:52.534Z,2.50
2022-07-28T17:47:20.633Z,2.70
2022-07-28T17:49:47.360Z,2.30
2022-07-28T17:52:15.099Z,2.53
2022-07-28T17:54:41.793Z,1.60
2022-07-28T17:57:08.435Z,13.20
2022-07-28T17:59:50.979Z,2.90
2022-07-28T18:02:20.281Z,2.08
2022-07-28T18:04:48.352Z,3.22
2022-07-28T18:07:15.864Z,2.97
2022-07-28T18:09:42.515Z,2.60
2022-07-28T18:12:09.249Z,2.47
2022-07-28T18:14:36.555Z,3.13
2022-07-28T18:17:03.290Z,3.60
2022-07-28T18:19:31.294Z,3.60
2022-07-28T18:21:57.958Z,3.50
2022-07-28T18:24:24.644Z,3.58
2022-07-28T18:26:52.556Z,3.22
2022-07-28T18:29:19.645Z,3.22
2022-07-28T18:31:47.001Z,3.20
2022-07-28T18:34:14.605Z,2.72
2022-07-28T18:36:43.281Z,2.90
2022-07-28T18:39:10.010Z,2.90
2022-07-28T18:41:46.275Z,2.38
2022-07-28T18:44:14.573Z,2.72
2022-07-28T18:46:41.446Z,2.88
2022-07-28T18:49:08.194Z,2.40
2022-07-28T18:51:34.928Z,2.90
2022-07-28T18:54:03.214Z,3.03
2022-07-28T18:56:31.611Z,2.60
2022-07-28T18:58:58.256Z,2.80
2022-07-28T19:01:24.932Z,2.70
2022-07-28T19:03:51.643Z,2.92
2022-07-28T19:06:18.408Z,2.83
2022-07-28T19:08:45.087Z,2.60
2022-07-28T19:11:19.650Z,2.80
2022-07-28T19:13:47.018Z,2.55
2022-07-28T19:18:46.043Z,2.60
2022-07-28T19:21:13.368Z,2.75
2022-07-28T19:23:43.445Z,2.65
2022-07-28T19:26:10.133Z,2.85
2022-07-28T19:28:38.480Z,2.83
2022-07-28T19:31:10.099Z,3.10
2022-07-28T19:33:44.347Z,3.22
2022-07-28T19:36:11.893Z,2.83
2022-07-28T19:38:38.534Z,2.90
2022-07-28T19:41:05.190Z,2.75
2022-07-28T19:43:31.887Z,3.20
2022-07-28T19:46:00.141Z,2.55
2022-07-28T19:48:27.284Z,2.60
2022-07-28T19:50:54.053Z,3.17
2022-07-28T19:53:21.004Z,3.58
2022-07-28T19:55:56.212Z,3.00
2022-07-28T19:58:23.066Z,2.90
2022-07-28T20:00:50.103Z,3.33
2022-07-28T20:04:01.223Z,3.80
2022-07-28T20:06:06.585Z,3.60
2022-07-28T20:08:33.258Z,3.38
2022-07-28T20:10:59.932Z,3.80
2022-07-28T20:13:26.581Z,3.55
2022-07-28T20:15:53.319Z,3.80
2022-07-28T20:18:21.335Z,3.92
2022-07-28T20:20:48.666Z,3.88
2022-07-28T20:23:15.441Z,3.78
2022-07-28T20:25:42.473Z,5.03
2022-07-28T20:28:09.345Z,5.80
2022-07-28T20:30:36.131Z,4.53
2022-07-28T20:33:03.069Z,4.97
2022-07-28T20:35:32.387Z,4.43
2022-07-28T20:37:59.173Z,4.70
2022-07-28T20:40:25.823Z,5.30
2022-07-28T20:42:53.757Z,4.05
2022-07-28T20:45:20.894Z,4.53
2022-07-28T20:47:47.617Z,5.40
2022-07-28T20:50:14.282Z,4.88
2022-07-28T20:52:42.444Z,4.43
2022-07-28T20:55:09.889Z,4.90
2022-07-28T20:57:36.598Z,5.20
2022-07-28T21:00:04.670Z,4.90
2022-07-28T21:02:31.388Z,4.30
2022-07-28T21:04:58.141Z,5.32
2022-07-28T21:07:59.543Z,4.47
2022-07-28T21:10:13.163Z,4.43
2022-07-28T21:12:39.982Z,4.85
2022-07-28T21:15:08.423Z,4.35
2022-07-28T21:17:35.566Z,4.60
2022-07-28T21:20:02.386Z,4.30
2022-07-28T21:22:29.033Z,4.72
2022-07-28T21:24:56.023Z,4.75
2022-07-28T21:27:24.219Z,4.68
2022-07-28T21:32:17.852Z,4.82
2022-07-28T21:34:44.870Z,4.78
2022-07-28T21:37:11.629Z,4.55
2022-07-28T21:39:38.693Z,4.28
2022-07-28T21:42:08.122Z,4.35
2022-07-28T21:44:37.228Z,5.10
2022-07-28T21:47:04.475Z,5.20
2022-07-28T21:49:31.249Z,5.25
2022-07-28T21:51:58.129Z,4.93
2022-07-28T21:54:24.749Z,5.55
2022-07-28T21:56:51.662Z,5.40
2022-07-28T21:59:18.715Z,5.50
2022-07-28T22:01:46.827Z,4.88
2022-07-28T22:04:13.909Z,5.05
2022-07-28T22:06:40.856Z,5.00
2022-07-28T22:09:13.151Z,5.40
2022-07-28T22:11:39.770Z,5.75
2022-07-28T22:14:06.649Z,5.75
2022-07-28T22:16:33.963Z,6.25
2022-07-28T22:19:02.071Z,5.60
2022-07-28T22:21:28.930Z,5.75
2022-07-28T22:23:55.699Z,5.97
2022-07-28T22:26:22.382Z,5.32
2022-07-28T22:28:49.024Z,5.32
2022-07-28T22:31:15.821Z,5.28
2022-07-28T22:33:42.580Z,5.55
2022-07-28T22:36:10.804Z,4.95
2022-07-28T22:38:38.265Z,5.28
2022-07-28T22:41:05.089Z,5.30
2022-07-28T22:43:32.151Z,5.88
2022-07-28T22:45:59.576Z,5.63
2022-07-28T22:48:26.675Z,4.97
2022-07-28T22:50:53.349Z,5.38
2022-07-28T22:53:21.440Z,5.05
2022-07-28T22:55:48.174Z,5.15
2022-07-28T22:58:15.131Z,6.63
2022-07-28T23:00:41.838Z,5.03
2022-07-28T23:03:11.749Z,4.95
2022-07-28T23:05:40.536Z,5.10
2022-07-28T23:08:07.277Z,5.18
2022-07-28T23:10:35.516Z,5.28
2022-07-28T23:13:02.601Z,5.20
2022-07-28T23:15:40.068Z,5.10
2022-07-28T23:18:07.852Z,4.82
2022-07-28T23:20:34.468Z,5.07
2022-07-28T23:23:01.268Z,5.10
2022-07-28T23:25:28.168Z,4.78
2022-07-28T23:27:56.508Z,4.55
2022-07-28T23:30:23.175Z,4.90
2022-07-28T23:32:49.860Z,4.72
2022-07-28T23:35:16.696Z,4.78
2022-07-28T23:37:43.355Z,4.72
2022-07-28T23:40:11.942Z,5.03
2022-07-28T23:42:38.606Z,5.15
2022-07-28T23:45:07.783Z,5.57
2022-07-28T23:50:01.156Z,4.80
2022-07-28T23:52:27.911Z,4.70
2022-07-28T23:54:54.567Z,4.85
2022-07-28T23:57:21.291Z,4.85
2022-07-28T23:59:47.917Z,5.40
